Explore Kentucky Lake

Lake Conditions
Facebook Twitter Instagram YouTube Contact Us About Us
Switch Mobile/Desktop

Previous Kentucky Lake Levels

Home | Lake Conditions | Previous Kentucky Lake Levels

Kentucky Lake Stages Over Last 48 Hours

The following table shows the previous 48 hours for Kentucky Lake.

Date/Time Lake River Discharge (cfs)
5/23/2019 11 PM CDT 358.82' 316.77' 28,353
5/23/2019 10 PM CDT 358.80' 317.00' 35,245
5/23/2019 9 PM CDT 358.86' 317.33' 35,370
5/23/2019 8 PM CDT 358.88' 317.13' 35,079
5/23/2019 7 PM CDT 358.85' 316.89' 35,718
5/23/2019 6 PM CDT 358.71' 317.47' 63,954
5/23/2019 5 PM CDT 358.71' 317.28' 63,676
5/23/2019 4 PM CDT 358.73' 317.42' 63,850
5/23/2019 3 PM CDT 358.75' 317.67' 63,919
5/23/2019 2 PM CDT 358.75' 317.48' 36,509
5/23/2019 1 PM CDT 358.88' 317.15' 34,784
5/23/2019 12 PM CDT 358.92' 317.14' 34,680
5/23/2019 11 AM CDT 358.90' 317.07' 34,515
5/23/2019 10 AM CDT 358.89' 317.11' 34,486
5/23/2019 9 AM CDT 358.90' 317.08' 27,913
5/23/2019 8 AM CDT 358.91' 317.16' 27,899
5/23/2019 7 AM CDT 358.92' 317.19' 27,913
5/23/2019 6 AM CDT 358.93' 317.17' 27,824
5/23/2019 5 AM CDT 358.92' 317.34' 27,887
5/23/2019 4 AM CDT 358.96' 317.42' 27,994
5/23/2019 3 AM CDT 359.00' 317.56' 27,959
5/23/2019 2 AM CDT 359.02' 317.71' 28,073
5/23/2019 1 AM CDT 359.02' 317.85' 28,227
5/23/2019 12 AM CDT 359.02' 317.73' 28,280
5/22/2019 11 PM CDT 358.98' 317.67' 35,871
5/22/2019 10 PM CDT 358.85' 318.30' 64,323
5/22/2019 9 PM CDT 358.82' 318.13' 64,115
5/22/2019 8 PM CDT 358.82' 318.24' 64,042
5/22/2019 7 PM CDT 358.85' 318.17' 63,639
5/22/2019 6 PM CDT 358.87' 318.26' 63,821
5/22/2019 5 PM CDT 358.91' 318.32' 63,835
5/22/2019 4 PM CDT 358.92' 318.20' 63,550
5/22/2019 3 PM CDT 358.95' 318.25' 63,869
5/22/2019 2 PM CDT 358.94' 318.21' 64,161
5/22/2019 1 PM CDT 358.92' 318.16' 64,547
5/22/2019 12 PM CDT 358.89' 318.07' 64,353
5/22/2019 11 AM CDT 358.96' 317.99' 64,449
5/22/2019 10 AM CDT 358.92' 318.07' 64,419
5/22/2019 9 AM CDT 358.94' 318.32' 64,333
5/22/2019 8 AM CDT 358.96' 318.08' 36,860
5/22/2019 7 AM CDT 359.02' 317.87' 28,545
5/22/2019 6 AM CDT 359.10' 317.82' 28,256
5/22/2019 5 AM CDT 359.18' 317.81' 28,249
5/22/2019 4 AM CDT 359.22' 317.86' 28,324
5/22/2019 3 AM CDT 359.28' 318.03' 28,274
5/22/2019 2 AM CDT 359.29' 318.05' 28,270
5/22/2019 1 AM CDT 359.27' 317.89' 35,562

Campfire
Photo by Angela Smith

May your campfires keep the bug bites away, and the mallows burnt gooey. Experience your next campfire at Kentucky Lake.